createdAt,value
2022-08-20T00:00:19.944Z,78.08
2022-08-20T00:10:45.228Z,77.99
2022-08-20T00:20:54.863Z,78.46
2022-08-20T00:31:00.785Z,79.09
2022-08-20T00:41:07.165Z,79.40
2022-08-20T00:51:15.545Z,79.38
2022-08-20T01:01:22.763Z,79.78
2022-08-20T01:11:28.189Z,79.92
2022-08-20T01:21:47.971Z,79.72
2022-08-20T01:31:57.131Z,80.19
2022-08-20T01:42:01.679Z,80.32
2022-08-20T01:52:06.772Z,80.36
2022-08-20T02:02:13.119Z,80.63
2022-08-20T02:12:18.989Z,80.72
2022-08-20T02:22:27.621Z,80.90
2022-08-20T02:32:34.337Z,81.24
2022-08-20T02:42:42.852Z,81.37
2022-08-20T02:52:51.784Z,81.41
2022-08-20T03:02:57.521Z,81.61
2022-08-20T03:13:02.798Z,82.02
2022-08-20T03:23:08.884Z,81.80
2022-08-20T03:33:14.403Z,81.92
2022-08-20T03:43:20.513Z,82.01
2022-08-20T03:53:24.307Z,82.20
2022-08-20T04:03:29.775Z,82.15
2022-08-20T04:13:37.992Z,82.32
2022-08-20T04:23:47.197Z,82.55
2022-08-20T04:33:53.076Z,82.29
2022-08-20T04:43:59.660Z,82.64
2022-08-20T04:54:05.362Z,82.50
2022-08-20T05:04:11.107Z,82.63
2022-08-20T05:14:16.659Z,82.38
2022-08-20T05:24:22.225Z,82.17
2022-08-20T05:34:28.149Z,81.88
2022-08-20T05:44:34.087Z,81.43
2022-08-20T05:54:40.168Z,81.15
2022-08-20T06:04:45.587Z,80.75
2022-08-20T06:14:50.177Z,80.80
2022-08-20T06:24:55.291Z,81.01
2022-08-20T06:35:01.686Z,80.14
2022-08-20T06:45:06.468Z,80.02
2022-08-20T06:55:12.338Z,80.08
2022-08-20T07:05:17.840Z,80.09
2022-08-20T07:15:22.379Z,79.33
2022-08-20T07:25:28.197Z,78.97
2022-08-20T07:35:33.561Z,78.91
2022-08-20T07:45:38.328Z,79.36
2022-08-20T07:55:59.265Z,79.62
2022-08-20T08:06:04.656Z,79.90
2022-08-20T08:16:11.936Z,79.96
2022-08-20T08:26:19.021Z,79.04
2022-08-20T08:36:24.399Z,78.68
2022-08-20T08:46:40.582Z,77.35
2022-08-20T08:56:50.207Z,75.73
2022-08-20T09:06:56.443Z,75.61
2022-08-20T09:17:02.054Z,73.90
2022-08-20T09:27:08.091Z,73.11
2022-08-20T09:37:13.941Z,73.45
2022-08-20T09:47:19.875Z,72.33
2022-08-20T09:57:26.405Z,72.52
2022-08-20T10:07:31.067Z,72.35
2022-08-20T10:17:37.912Z,71.89
2022-08-20T10:27:43.456Z,71.59
2022-08-20T10:37:49.042Z,71.59
2022-08-20T10:47:54.744Z,71.53
2022-08-20T10:58:00.450Z,71.37
2022-08-20T11:08:05.454Z,71.33
2022-08-20T11:18:12.405Z,71.46
2022-08-20T11:28:31.302Z,71.41
2022-08-20T11:38:37.854Z,70.89
2022-08-20T11:48:43.329Z,70.22
2022-08-20T11:58:49.002Z,69.78
2022-08-20T12:08:54.406Z,69.74
2022-08-20T12:19:00.067Z,69.46
2022-08-20T12:29:05.604Z,70.02
2022-08-20T12:39:11.176Z,70.41
2022-08-20T12:49:16.613Z,72.15
2022-08-20T12:59:25.948Z,72.14
2022-08-20T13:09:32.908Z,72.58
2022-08-20T13:19:39.737Z,72.49
2022-08-20T13:29:47.584Z,72.84
2022-08-20T13:39:53.829Z,72.75
2022-08-20T14:00:06.179Z,72.42
2022-08-20T14:10:14.052Z,72.52
2022-08-20T14:20:21.470Z,72.53
2022-08-20T14:30:28.808Z,72.24
2022-08-20T14:40:35.113Z,72.28
2022-08-20T14:50:40.655Z,72.22
2022-08-20T15:00:47.213Z,72.48
2022-08-20T15:10:52.765Z,72.63
2022-08-20T15:20:58.526Z,72.64
2022-08-20T15:31:09.770Z,72.26
2022-08-20T15:41:15.242Z,72.07
2022-08-20T15:51:28.261Z,72.01
2022-08-20T16:01:33.016Z,71.72
2022-08-20T16:11:38.629Z,72.29
2022-08-20T16:21:46.212Z,72.55
2022-08-20T16:31:55.914Z,72.99
2022-08-20T16:42:05.973Z,73.19
2022-08-20T16:52:14.008Z,73.78
2022-08-20T17:02:20.488Z,74.43
2022-08-20T17:12:28.573Z,75.05
2022-08-20T17:22:40.785Z,75.59
2022-08-20T17:32:57.305Z,75.89
2022-08-20T17:43:05.541Z,76.45
2022-08-20T18:00:49.197Z,77.00
2022-08-20T18:10:57.061Z,77.43
2022-08-20T18:21:22.005Z,78.08
2022-08-20T18:31:27.621Z,78.70
2022-08-20T18:41:36.102Z,79.22
2022-08-20T18:51:49.458Z,79.47
2022-08-20T19:01:56.751Z,79.89
2022-08-20T19:12:16.557Z,80.30
2022-08-20T19:22:24.086Z,80.55
2022-08-20T19:32:33.527Z,81.09
2022-08-20T19:42:45.712Z,81.28
2022-08-20T19:52:51.810Z,81.66
2022-08-20T20:03:09.096Z,81.84
2022-08-20T20:13:19.259Z,82.09
2022-08-20T20:23:38.447Z,82.24
2022-08-20T20:33:52.722Z,82.30
2022-08-20T20:44:01.900Z,82.53
2022-08-20T20:54:24.174Z,82.63
2022-08-20T21:04:32.051Z,82.88
2022-08-20T21:14:40.042Z,83.10
2022-08-20T21:24:48.784Z,83.24
2022-08-20T21:34:56.064Z,83.37
2022-08-20T21:45:03.830Z,83.56
2022-08-20T21:55:11.165Z,83.79
2022-08-20T22:05:18.531Z,84.05
2022-08-20T22:25:32.384Z,84.72
2022-08-20T22:45:51.048Z,85.09
2022-08-20T22:55:58.505Z,85.18
2022-08-20T23:06:06.167Z,85.23
2022-08-20T23:16:13.734Z,85.46
2022-08-20T23:26:23.237Z,85.91
2022-08-20T23:36:30.308Z,86.14
2022-08-20T23:46:40.303Z,86.63
2022-08-20T23:56:47.597Z,86.67
